Orange Hope — JD2027 — position and weather

sailwx.info

Track history (hours):
 
Tides and Currents Weather Stations Pressure Air Temp Water Temp Dewpoint Dewpoint Depression Visibility Wind Speed Wind Dir Waves Ship Positions

Orange Hope

Last reported at 2017-Sep-21 18:07 UTC. Time now 2017-Sep-23 23:42 UTC.
Position N 34°33' E 134°47'.

Length 180 m; draft 6.5 m.

Type: Passenger vessel. MMSI: 431501801.

Date/timePositionNaut miles runAvg speedWind from/ knotsBaromVisibWave heightAir tempDewpointWater temp
2017-Sep-21 18:07N 34°33' E 134°47'319.7
2017-Sep-21 17:57N 34°34' E 134°50'1016.8
2017-Sep-21 17:22N 34°37' E 135°02'718.5
2017-Sep-21 17:00N 34°36' E 135°10'817.0
2017-Sep-21 16:30N 34°40' E 135°18'2 3.5
2017-Sep-21 16:00N 34°42' E 135°17'0 0.0
2017-Sep-21 15:30N 34°42' E 135°17'0 0.0
2017-Sep-21 15:01N 34°42' E 135°17'0 0.0
2017-Sep-21 14:31N 34°42' E 135°17'3 5.9
2017-Sep-21 14:00N 34°39' E 135°19'918.0
2017-Sep-21 13:30N 34°35' E 135°09'918.5
2017-Sep-21 13:00N 34°37' E 134°58'12 0.6
2017-Sep-20 18:09N 34°33' E 134°44'319.6
2017-Sep-20 18:00N 34°34' E 134°48'918.4
2017-Sep-20 17:30N 34°37' E 134°58'917.0
2017-Sep-20 17:00N 34°36' E 135°08'918.6
2017-Sep-20 16:30N 34°40' E 135°18'2 4.5
2017-Sep-20 16:00N 34°42' E 135°17'0 0.0
2017-Sep-20 15:30N 34°42' E 135°17'0 0.0
2017-Sep-20 15:00N 34°42' E 135°17'3 2.9
2017-Sep-20 14:01N 34°39' E 135°19'917.9
2017-Sep-20 13:30N 34°35' E 135°09'1018.8
2017-Sep-20 13:00N 34°37' E 134°58'7 0.4
2017-Sep-19 17:53N 34°34' E 134°50'718.1
2017-Sep-19 17:30N 34°37' E 134°57'816.2
2017-Sep-19 17:00N 34°35' E 135°07'918.4
2017-Sep-19 16:30N 34°38' E 135°17'3 6.7
2017-Sep-19 16:00N 34°42' E 135°17'0 0.0
2017-Sep-19 15:30N 34°42' E 135°17'0 0.0
2017-Sep-19 15:00N 34°42' E 135°17'0 0.0
2017-Sep-19 14:30N 34°42' E 135°17'2 4.4
2017-Sep-19 14:00N 34°40' E 135°19'816.3
2017-Sep-19 13:30N 34°35' E 135°11'1019.1
2017-Sep-19 13:00N 34°37' E 134°60'  
2017-Sep-15 17:55N 34°33' E 134°46'819.6
2017-Sep-15 17:30N 34°37' E 134°55'918.0
2017-Sep-15 17:00N 34°36' E 135°06'918.9
2017-Sep-15 16:30N 34°38' E 135°17'4 5.7
2017-Sep-15 15:50N 34°42' E 135°17'0 0.0
2017-Sep-15 15:14N 34°42' E 135°17'0 0.0
2017-Sep-15 14:56N 34°42' E 135°17'0 1.1
2017-Sep-15 14:30N 34°42' E 135°18'612.4
2017-Sep-15 14:00N 34°36' E 135°15'817.2
2017-Sep-15 13:30N 34°34' E 135°05'917.4
2017-Sep-15 13:00N 34°35' E 134°55'4 0.2
2017-Sep-14 17:52N 34°34' E 134°50'721.2
2017-Sep-14 17:30N 34°38' E 134°58'1019.5
2017-Sep-14 17:00N 34°36' E 135°10'816.7
2017-Sep-14 16:30N 34°41' E 135°18'1 2.9
2017-Sep-14 16:00N 34°42' E 135°17'0 0.0
2017-Sep-14 15:30N 34°42' E 135°17'0 0.0
2017-Sep-14 15:00N 34°42' E 135°17'0 0.3
2017-Sep-14 14:30N 34°42' E 135°17'611.5
2017-Sep-14 14:00N 34°36' E 135°17'918.0
2017-Sep-14 13:30N 34°34' E 135°06'918.2
2017-Sep-14 13:00N 34°35' E 134°55'5 0.3
2017-Sep-13 17:49N 34°34' E 134°49'721.3
2017-Sep-13 17:30N 34°37' E 134°57'1020.5
2017-Sep-13 17:00N 34°36' E 135°09'917.6
2017-Sep-13 16:30N 34°40' E 135°18'2 3.2
2017-Sep-13 16:01N 34°42' E 135°17'0 0.0
2017-Sep-13 15:31N 34°42' E 135°17'0 0.0
2017-Sep-13 15:00N 34°42' E 135°17'1 1.2
2017-Sep-13 14:30N 34°42' E 135°18'713.1
2017-Sep-13 14:00N 34°36' E 135°15'917.9
2017-Sep-13 13:30N 34°35' E 135°04'816.6
2017-Sep-13 13:00N 34°35' E 134°54'9 0.5
2017-Sep-12 18:00N 34°32' E 134°43'1020.2
2017-Sep-12 17:31N 34°36' E 134°54'918.9
2017-Sep-12 17:01N 34°36' E 135°06'1019.7
2017-Sep-12 16:30N 34°38' E 135°17'4 7.8
2017-Sep-12 16:01N 34°42' E 135°17'0 0.0
2017-Sep-12 15:30N 34°42' E 135°17'0 0.0
2017-Sep-12 15:01N 34°42' E 135°17'0 0.2
2017-Sep-12 14:31N 34°42' E 135°17'5 9.6
2017-Sep-12 14:00N 34°37' E 135°18'917.9
2017-Sep-12 13:30N 34°35' E 135°07'917.0
2017-Sep-12 13:00N 34°36' E 134°57'  
Track history (hours):
 
Tides and Currents Weather Stations Pressure Air Temp Water Temp Dewpoint Dewpoint Depression Visibility Wind Speed Wind Dir Waves Ship Positions

Orange Hope

Last reported at 2017-Sep-21 18:07 UTC. Time now 2017-Sep-23 23:42 UTC.
Position N 34°33' E 134°47'.

Length 180 m; draft 6.5 m.

Type: Passenger vessel. MMSI: 431501801.

Date/timePositionNaut miles runAvg speedWind from/ knotsBaromVisibWave heightAir tempDewpointWater temp
2017-Sep-21 18:07N 34°33' E 134°47'319.7
2017-Sep-21 17:57N 34°34' E 134°50'1016.8
2017-Sep-21 17:22N 34°37' E 135°02'718.5
2017-Sep-21 17:00N 34°36' E 135°10'817.0
2017-Sep-21 16:30N 34°40' E 135°18'2 3.5
2017-Sep-21 16:00N 34°42' E 135°17'0 0.0
2017-Sep-21 15:30N 34°42' E 135°17'0 0.0
2017-Sep-21 15:01N 34°42' E 135°17'0 0.0
2017-Sep-21 14:31N 34°42' E 135°17'3 5.9
2017-Sep-21 14:00N 34°39' E 135°19'918.0
2017-Sep-21 13:30N 34°35' E 135°09'918.5
2017-Sep-21 13:00N 34°37' E 134°58'12 0.6
2017-Sep-20 18:09N 34°33' E 134°44'319.6
2017-Sep-20 18:00N 34°34' E 134°48'918.4
2017-Sep-20 17:30N 34°37' E 134°58'917.0
2017-Sep-20 17:00N 34°36' E 135°08'918.6
2017-Sep-20 16:30N 34°40' E 135°18'2 4.5
2017-Sep-20 16:00N 34°42' E 135°17'0 0.0
2017-Sep-20 15:30N 34°42' E 135°17'0 0.0
2017-Sep-20 15:00N 34°42' E 135°17'3 2.9
2017-Sep-20 14:01N 34°39' E 135°19'917.9
2017-Sep-20 13:30N 34°35' E 135°09'1018.8
2017-Sep-20 13:00N 34°37' E 134°58'7 0.4
2017-Sep-19 17:53N 34°34' E 134°50'718.1
2017-Sep-19 17:30N 34°37' E 134°57'816.2
2017-Sep-19 17:00N 34°35' E 135°07'918.4
2017-Sep-19 16:30N 34°38' E 135°17'3 6.7
2017-Sep-19 16:00N 34°42' E 135°17'0 0.0
2017-Sep-19 15:30N 34°42' E 135°17'0 0.0
2017-Sep-19 15:00N 34°42' E 135°17'0 0.0
2017-Sep-19 14:30N 34°42' E 135°17'2 4.4
2017-Sep-19 14:00N 34°40' E 135°19'816.3
2017-Sep-19 13:30N 34°35' E 135°11'1019.1
2017-Sep-19 13:00N 34°37' E 134°60'  
2017-Sep-15 17:55N 34°33' E 134°46'819.6
2017-Sep-15 17:30N 34°37' E 134°55'918.0
2017-Sep-15 17:00N 34°36' E 135°06'918.9
2017-Sep-15 16:30N 34°38' E 135°17'4 5.7
2017-Sep-15 15:50N 34°42' E 135°17'0 0.0
2017-Sep-15 15:14N 34°42' E 135°17'0 0.0
2017-Sep-15 14:56N 34°42' E 135°17'0 1.1
2017-Sep-15 14:30N 34°42' E 135°18'612.4
2017-Sep-15 14:00N 34°36' E 135°15'817.2
2017-Sep-15 13:30N 34°34' E 135°05'917.4
2017-Sep-15 13:00N 34°35' E 134°55'4 0.2
2017-Sep-14 17:52N 34°34' E 134°50'721.2
2017-Sep-14 17:30N 34°38' E 134°58'1019.5
2017-Sep-14 17:00N 34°36' E 135°10'816.7
2017-Sep-14 16:30N 34°41' E 135°18'1 2.9
2017-Sep-14 16:00N 34°42' E 135°17'0 0.0
2017-Sep-14 15:30N 34°42' E 135°17'0 0.0
2017-Sep-14 15:00N 34°42' E 135°17'0 0.3
2017-Sep-14 14:30N 34°42' E 135°17'611.5
2017-Sep-14 14:00N 34°36' E 135°17'918.0
2017-Sep-14 13:30N 34°34' E 135°06'918.2
2017-Sep-14 13:00N 34°35' E 134°55'5 0.3
2017-Sep-13 17:49N 34°34' E 134°49'721.3
2017-Sep-13 17:30N 34°37' E 134°57'1020.5
2017-Sep-13 17:00N 34°36' E 135°09'917.6
2017-Sep-13 16:30N 34°40' E 135°18'2 3.2
2017-Sep-13 16:01N 34°42' E 135°17'0 0.0
2017-Sep-13 15:31N 34°42' E 135°17'0 0.0
2017-Sep-13 15:00N 34°42' E 135°17'1 1.2
2017-Sep-13 14:30N 34°42' E 135°18'713.1
2017-Sep-13 14:00N 34°36' E 135°15'917.9
2017-Sep-13 13:30N 34°35' E 135°04'816.6
2017-Sep-13 13:00N 34°35' E 134°54'9 0.5
2017-Sep-12 18:00N 34°32' E 134°43'1020.2
2017-Sep-12 17:31N 34°36' E 134°54'918.9
2017-Sep-12 17:01N 34°36' E 135°06'1019.7
2017-Sep-12 16:30N 34°38' E 135°17'4 7.8
2017-Sep-12 16:01N 34°42' E 135°17'0 0.0
2017-Sep-12 15:30N 34°42' E 135°17'0 0.0
2017-Sep-12 15:01N 34°42' E 135°17'0 0.2
2017-Sep-12 14:31N 34°42' E 135°17'5 9.6
2017-Sep-12 14:00N 34°37' E 135°18'917.9
2017-Sep-12 13:30N 34°35' E 135°07'917.0
2017-Sep-12 13:00N 34°36' E 134°57'  

Dump ship's entire track history